sensor_id;sensor_type;location;lat;lon;timestamp;P1;durP1;ratioP1;P2;durP2;ratioP2
4726;SDS011;2377;51.734;8.950;2022-07-29T00:00:50;2.77;;;1.23;;
4726;SDS011;2377;51.734;8.950;2022-07-29T00:03:17;4.73;;;1.90;;
4726;SDS011;2377;51.734;8.950;2022-07-29T00:05:44;6.13;;;1.70;;
4726;SDS011;2377;51.734;8.950;2022-07-29T00:08:11;3.40;;;1.50;;
4726;SDS011;2377;51.734;8.950;2022-07-29T00:10:40;3.90;;;1.47;;
4726;SDS011;2377;51.734;8.950;2022-07-29T00:13:08;3.50;;;1.30;;
4726;SDS011;2377;51.734;8.950;2022-07-29T00:15:35;5.27;;;1.50;;
4726;SDS011;2377;51.734;8.950;2022-07-29T00:18:03;5.07;;;1.97;;
4726;SDS011;2377;51.734;8.950;2022-07-29T00:20:31;3.53;;;1.67;;
4726;SDS011;2377;51.734;8.950;2022-07-29T00:22:58;4.07;;;1.50;;
4726;SDS011;2377;51.734;8.950;2022-07-29T00:25:25;4.30;;;2.03;;
4726;SDS011;2377;51.734;8.950;2022-07-29T00:27:53;3.00;;;1.47;;
4726;SDS011;2377;51.734;8.950;2022-07-29T00:30:20;2.50;;;1.30;;
4726;SDS011;2377;51.734;8.950;2022-07-29T00:32:47;3.40;;;1.60;;
4726;SDS011;2377;51.734;8.950;2022-07-29T00:35:15;4.63;;;1.57;;
4726;SDS011;2377;51.734;8.950;2022-07-29T00:38:00;9.93;;;2.00;;
4726;SDS011;2377;51.734;8.950;2022-07-29T00:40:27;3.20;;;1.50;;
4726;SDS011;2377;51.734;8.950;2022-07-29T00:42:54;3.70;;;1.47;;
4726;SDS011;2377;51.734;8.950;2022-07-29T00:45:21;5.73;;;1.60;;
4726;SDS011;2377;51.734;8.950;2022-07-29T00:47:48;5.07;;;1.50;;
4726;SDS011;2377;51.734;8.950;2022-07-29T00:50:17;8.47;;;1.97;;
4726;SDS011;2377;51.734;8.950;2022-07-29T00:52:45;7.30;;;1.60;;
4726;SDS011;2377;51.734;8.950;2022-07-29T00:55:13;4.00;;;1.73;;
4726;SDS011;2377;51.734;8.950;2022-07-29T00:57:42;4.50;;;1.70;;
4726;SDS011;2377;51.734;8.950;2022-07-29T01:00:12;3.90;;;1.60;;
4726;SDS011;2377;51.734;8.950;2022-07-29T01:02:43;5.30;;;1.80;;
4726;SDS011;2377;51.734;8.950;2022-07-29T01:05:13;3.93;;;1.77;;
4726;SDS011;2377;51.734;8.950;2022-07-29T01:07:43;3.13;;;1.57;;
4726;SDS011;2377;51.734;8.950;2022-07-29T01:10:13;9.10;;;1.70;;
4726;SDS011;2377;51.734;8.950;2022-07-29T01:12:42;5.00;;;1.43;;
4726;SDS011;2377;51.734;8.950;2022-07-29T01:15:13;4.00;;;1.40;;
4726;SDS011;2377;51.734;8.950;2022-07-29T01:17:43;3.60;;;1.63;;
4726;SDS011;2377;51.734;8.950;2022-07-29T01:20:20;6.57;;;1.83;;
4726;SDS011;2377;51.734;8.950;2022-07-29T01:23:08;6.20;;;1.90;;
4726;SDS011;2377;51.734;8.950;2022-07-29T01:26:09;3.47;;;1.60;;
4726;SDS011;2377;51.734;8.950;2022-07-29T01:29:02;3.53;;;1.63;;
4726;SDS011;2377;51.734;8.950;2022-07-29T01:31:39;4.93;;;1.73;;
4726;SDS011;2377;51.734;8.950;2022-07-29T01:34:18;3.70;;;1.50;;
4726;SDS011;2377;51.734;8.950;2022-07-29T01:36:55;5.30;;;1.77;;
4726;SDS011;2377;51.734;8.950;2022-07-29T01:39:35;4.07;;;1.80;;
4726;SDS011;2377;51.734;8.950;2022-07-29T01:42:06;4.87;;;1.97;;
4726;SDS011;2377;51.734;8.950;2022-07-29T01:44:45;4.60;;;1.50;;
4726;SDS011;2377;51.734;8.950;2022-07-29T01:47:20;3.83;;;1.47;;
4726;SDS011;2377;51.734;8.950;2022-07-29T01:49:58;7.60;;;1.80;;
4726;SDS011;2377;51.734;8.950;2022-07-29T01:52:31;3.93;;;1.60;;
4726;SDS011;2377;51.734;8.950;2022-07-29T01:55:06;4.50;;;2.00;;
4726;SDS011;2377;51.734;8.950;2022-07-29T01:57:40;3.73;;;2.17;;
4726;SDS011;2377;51.734;8.950;2022-07-29T02:00:13;6.07;;;1.80;;
4726;SDS011;2377;51.734;8.950;2022-07-29T02:02:43;4.50;;;1.80;;
4726;SDS011;2377;51.734;8.950;2022-07-29T02:05:14;3.93;;;1.53;;
4726;SDS011;2377;51.734;8.950;2022-07-29T02:07:44;3.10;;;1.50;;
4726;SDS011;2377;51.734;8.950;2022-07-29T02:10:16;8.60;;;1.70;;
4726;SDS011;2377;51.734;8.950;2022-07-29T02:12:48;3.83;;;1.60;;
4726;SDS011;2377;51.734;8.950;2022-07-29T02:15:17;4.87;;;1.70;;
4726;SDS011;2377;51.734;8.950;2022-07-29T02:17:47;3.53;;;1.70;;
4726;SDS011;2377;51.734;8.950;2022-07-29T02:20:21;4.33;;;1.63;;
4726;SDS011;2377;51.734;8.950;2022-07-29T02:22:51;6.50;;;1.60;;
4726;SDS011;2377;51.734;8.950;2022-07-29T02:25:21;5.90;;;1.83;;
4726;SDS011;2377;51.734;8.950;2022-07-29T02:27:50;4.10;;;1.60;;
4726;SDS011;2377;51.734;8.950;2022-07-29T02:30:24;6.00;;;1.50;;
4726;SDS011;2377;51.734;8.950;2022-07-29T02:32:54;5.13;;;1.83;;
4726;SDS011;2377;51.734;8.950;2022-07-29T02:35:22;4.03;;;1.60;;
4726;SDS011;2377;51.734;8.950;2022-07-29T02:37:51;3.43;;;1.67;;
4726;SDS011;2377;51.734;8.950;2022-07-29T02:40:34;6.57;;;1.90;;
4726;SDS011;2377;51.734;8.950;2022-07-29T02:43:05;3.10;;;1.63;;
4726;SDS011;2377;51.734;8.950;2022-07-29T02:45:37;7.00;;;1.83;;
4726;SDS011;2377;51.734;8.950;2022-07-29T02:48:05;3.30;;;1.50;;
4726;SDS011;2377;51.734;8.950;2022-07-29T02:50:42;6.70;;;1.70;;
4726;SDS011;2377;51.734;8.950;2022-07-29T02:53:18;3.13;;;1.53;;
4726;SDS011;2377;51.734;8.950;2022-07-29T02:55:51;4.73;;;1.70;;
4726;SDS011;2377;51.734;8.950;2022-07-29T02:58:24;2.87;;;1.60;;
4726;SDS011;2377;51.734;8.950;2022-07-29T03:00:56;5.93;;;1.83;;
4726;SDS011;2377;51.734;8.950;2022-07-29T03:03:29;4.77;;;2.10;;
4726;SDS011;2377;51.734;8.950;2022-07-29T03:06:02;4.13;;;1.80;;
4726;SDS011;2377;51.734;8.950;2022-07-29T03:08:31;6.20;;;2.10;;
4726;SDS011;2377;51.734;8.950;2022-07-29T03:11:00;5.50;;;1.83;;
4726;SDS011;2377;51.734;8.950;2022-07-29T03:13:29;4.27;;;2.00;;
4726;SDS011;2377;51.734;8.950;2022-07-29T03:15:58;5.80;;;1.83;;
4726;SDS011;2377;51.734;8.950;2022-07-29T03:18:26;5.13;;;1.60;;
4726;SDS011;2377;51.734;8.950;2022-07-29T03:20:54;3.60;;;1.70;;
4726;SDS011;2377;51.734;8.950;2022-07-29T03:23:22;4.70;;;1.57;;
4726;SDS011;2377;51.734;8.950;2022-07-29T03:25:53;5.97;;;1.83;;
4726;SDS011;2377;51.734;8.950;2022-07-29T03:28:21;3.67;;;1.60;;
4726;SDS011;2377;51.734;8.950;2022-07-29T03:30:49;4.80;;;1.60;;
4726;SDS011;2377;51.734;8.950;2022-07-29T03:33:21;4.17;;;1.80;;
4726;SDS011;2377;51.734;8.950;2022-07-29T03:35:48;5.87;;;1.87;;
4726;SDS011;2377;51.734;8.950;2022-07-29T03:38:15;5.80;;;1.87;;
4726;SDS011;2377;51.734;8.950;2022-07-29T03:40:43;4.53;;;1.80;;
4726;SDS011;2377;51.734;8.950;2022-07-29T03:43:17;3.40;;;1.70;;
4726;SDS011;2377;51.734;8.950;2022-07-29T03:45:48;4.47;;;1.70;;
4726;SDS011;2377;51.734;8.950;2022-07-29T03:48:21;5.53;;;1.70;;
4726;SDS011;2377;51.734;8.950;2022-07-29T03:50:51;5.10;;;1.50;;
4726;SDS011;2377;51.734;8.950;2022-07-29T03:53:19;3.03;;;1.70;;
4726;SDS011;2377;51.734;8.950;2022-07-29T03:55:46;3.77;;;1.60;;
4726;SDS011;2377;51.734;8.950;2022-07-29T03:58:20;3.53;;;1.57;;
4726;SDS011;2377;51.734;8.950;2022-07-29T04:00:52;4.87;;;1.77;;
4726;SDS011;2377;51.734;8.950;2022-07-29T04:03:22;7.47;;;2.00;;
4726;SDS011;2377;51.734;8.950;2022-07-29T04:05:59;5.70;;;1.53;;
4726;SDS011;2377;51.734;8.950;2022-07-29T04:08:28;4.23;;;1.60;;
4726;SDS011;2377;51.734;8.950;2022-07-29T04:10:55;5.57;;;2.00;;
4726;SDS011;2377;51.734;8.950;2022-07-29T04:13:22;4.70;;;1.70;;
4726;SDS011;2377;51.734;8.950;2022-07-29T04:15:49;4.17;;;1.93;;
4726;SDS011;2377;51.734;8.950;2022-07-29T04:18:17;6.77;;;1.60;;
4726;SDS011;2377;51.734;8.950;2022-07-29T04:20:45;8.13;;;2.10;;
4726;SDS011;2377;51.734;8.950;2022-07-29T04:23:12;3.10;;;1.53;;
4726;SDS011;2377;51.734;8.950;2022-07-29T04:25:40;4.80;;;1.70;;
4726;SDS011;2377;51.734;8.950;2022-07-29T04:28:08;4.93;;;1.80;;
4726;SDS011;2377;51.734;8.950;2022-07-29T04:30:36;4.73;;;1.57;;
4726;SDS011;2377;51.734;8.950;2022-07-29T04:33:04;8.73;;;1.87;;
4726;SDS011;2377;51.734;8.950;2022-07-29T04:35:33;6.33;;;1.50;;
4726;SDS011;2377;51.734;8.950;2022-07-29T04:38:04;4.07;;;1.70;;
4726;SDS011;2377;51.734;8.950;2022-07-29T04:40:32;5.53;;;1.93;;
4726;SDS011;2377;51.734;8.950;2022-07-29T04:43:00;5.77;;;1.63;;
4726;SDS011;2377;51.734;8.950;2022-07-29T04:45:28;5.43;;;1.70;;
4726;SDS011;2377;51.734;8.950;2022-07-29T04:47:55;3.73;;;1.57;;
4726;SDS011;2377;51.734;8.950;2022-07-29T04:50:22;6.37;;;2.00;;
4726;SDS011;2377;51.734;8.950;2022-07-29T04:52:49;2.80;;;1.50;;
4726;SDS011;2377;51.734;8.950;2022-07-29T04:55:18;3.43;;;1.80;;
4726;SDS011;2377;51.734;8.950;2022-07-29T04:57:45;5.30;;;2.37;;
4726;SDS011;2377;51.734;8.950;2022-07-29T05:00:12;2.90;;;1.47;;
4726;SDS011;2377;51.734;8.950;2022-07-29T05:02:40;2.53;;;1.37;;
4726;SDS011;2377;51.734;8.950;2022-07-29T05:05:07;3.50;;;1.80;;
4726;SDS011;2377;51.734;8.950;2022-07-29T05:07:34;3.83;;;1.77;;
4726;SDS011;2377;51.734;8.950;2022-07-29T05:10:02;5.87;;;1.83;;
4726;SDS011;2377;51.734;8.950;2022-07-29T05:12:31;3.93;;;1.67;;
4726;SDS011;2377;51.734;8.950;2022-07-29T05:14:58;7.20;;;2.10;;
4726;SDS011;2377;51.734;8.950;2022-07-29T05:17:25;4.10;;;1.60;;
4726;SDS011;2377;51.734;8.950;2022-07-29T05:19:52;5.83;;;1.73;;
4726;SDS011;2377;51.734;8.950;2022-07-29T05:22:20;9.00;;;1.80;;
4726;SDS011;2377;51.734;8.950;2022-07-29T05:24:47;6.30;;;2.00;;
4726;SDS011;2377;51.734;8.950;2022-07-29T05:27:14;4.60;;;1.70;;
4726;SDS011;2377;51.734;8.950;2022-07-29T05:29:43;6.07;;;1.83;;
4726;SDS011;2377;51.734;8.950;2022-07-29T05:32:10;4.03;;;1.93;;
4726;SDS011;2377;51.734;8.950;2022-07-29T05:34:38;4.20;;;1.63;;
4726;SDS011;2377;51.734;8.950;2022-07-29T05:37:06;4.60;;;2.00;;
4726;SDS011;2377;51.734;8.950;2022-07-29T05:39:33;5.73;;;1.87;;
4726;SDS011;2377;51.734;8.950;2022-07-29T05:42:00;8.87;;;2.10;;
4726;SDS011;2377;51.734;8.950;2022-07-29T05:44:27;6.17;;;2.00;;
4726;SDS011;2377;51.734;8.950;2022-07-29T05:46:55;3.87;;;1.80;;
4726;SDS011;2377;51.734;8.950;2022-07-29T05:49:22;4.27;;;1.90;;
4726;SDS011;2377;51.734;8.950;2022-07-29T05:51:49;4.07;;;1.77;;
4726;SDS011;2377;51.734;8.950;2022-07-29T05:54:16;5.50;;;1.73;;
4726;SDS011;2377;51.734;8.950;2022-07-29T05:56:44;4.30;;;1.83;;
4726;SDS011;2377;51.734;8.950;2022-07-29T05:59:11;2.50;;;1.30;;
4726;SDS011;2377;51.734;8.950;2022-07-29T06:01:38;4.33;;;1.67;;
4726;SDS011;2377;51.734;8.950;2022-07-29T06:04:07;3.93;;;1.70;;
4726;SDS011;2377;51.734;8.950;2022-07-29T06:06:35;6.97;;;2.00;;
4726;SDS011;2377;51.734;8.950;2022-07-29T06:09:02;5.13;;;1.80;;
4726;SDS011;2377;51.734;8.950;2022-07-29T06:11:29;5.57;;;1.90;;
4726;SDS011;2377;51.734;8.950;2022-07-29T06:13:57;9.13;;;1.97;;
4726;SDS011;2377;51.734;8.950;2022-07-29T06:16:24;4.53;;;1.70;;
4726;SDS011;2377;51.734;8.950;2022-07-29T06:18:51;3.43;;;1.90;;
4726;SDS011;2377;51.734;8.950;2022-07-29T06:21:19;4.30;;;1.70;;
4726;SDS011;2377;51.734;8.950;2022-07-29T06:23:46;6.13;;;1.90;;
4726;SDS011;2377;51.734;8.950;2022-07-29T06:26:13;4.60;;;1.73;;
4726;SDS011;2377;51.734;8.950;2022-07-29T06:28:41;5.83;;;1.90;;
4726;SDS011;2377;51.734;8.950;2022-07-29T06:31:08;5.63;;;1.97;;
4726;SDS011;2377;51.734;8.950;2022-07-29T06:33:35;4.30;;;2.03;;
4726;SDS011;2377;51.734;8.950;2022-07-29T06:36:03;6.87;;;1.67;;
4726;SDS011;2377;51.734;8.950;2022-07-29T06:38:32;3.70;;;1.60;;
4726;SDS011;2377;51.734;8.950;2022-07-29T06:40:59;4.40;;;1.70;;
4726;SDS011;2377;51.734;8.950;2022-07-29T06:43:27;4.37;;;2.00;;
4726;SDS011;2377;51.734;8.950;2022-07-29T06:45:59;4.53;;;1.70;;
4726;SDS011;2377;51.734;8.950;2022-07-29T06:48:28;6.13;;;1.97;;
4726;SDS011;2377;51.734;8.950;2022-07-29T06:50:55;4.50;;;1.70;;
4726;SDS011;2377;51.734;8.950;2022-07-29T06:53:23;4.30;;;2.13;;
4726;SDS011;2377;51.734;8.950;2022-07-29T06:55:53;4.20;;;2.10;;
4726;SDS011;2377;51.734;8.950;2022-07-29T06:58:20;5.83;;;1.67;;
4726;SDS011;2377;51.734;8.950;2022-07-29T07:00:47;5.60;;;1.77;;
4726;SDS011;2377;51.734;8.950;2022-07-29T07:03:14;3.40;;;1.50;;
4726;SDS011;2377;51.734;8.950;2022-07-29T07:05:43;6.30;;;1.80;;
4726;SDS011;2377;51.734;8.950;2022-07-29T07:08:11;4.43;;;2.00;;
4726;SDS011;2377;51.734;8.950;2022-07-29T07:10:39;7.00;;;1.93;;
4726;SDS011;2377;51.734;8.950;2022-07-29T07:13:07;4.83;;;2.03;;
4726;SDS011;2377;51.734;8.950;2022-07-29T07:15:35;4.60;;;1.73;;
4726;SDS011;2377;51.734;8.950;2022-07-29T07:18:03;3.43;;;1.50;;
4726;SDS011;2377;51.734;8.950;2022-07-29T07:20:31;5.73;;;1.67;;
4726;SDS011;2377;51.734;8.950;2022-07-29T07:22:58;4.10;;;1.83;;
4726;SDS011;2377;51.734;8.950;2022-07-29T07:25:28;5.80;;;2.57;;
4726;SDS011;2377;51.734;8.950;2022-07-29T07:27:56;6.37;;;2.00;;
4726;SDS011;2377;51.734;8.950;2022-07-29T07:30:25;5.50;;;1.97;;
4726;SDS011;2377;51.734;8.950;2022-07-29T07:32:52;3.93;;;1.90;;
4726;SDS011;2377;51.734;8.950;2022-07-29T07:35:20;4.07;;;1.80;;
4726;SDS011;2377;51.734;8.950;2022-07-29T07:37:47;4.97;;;2.03;;
4726;SDS011;2377;51.734;8.950;2022-07-29T07:40:14;5.30;;;2.00;;
4726;SDS011;2377;51.734;8.950;2022-07-29T07:42:42;4.80;;;1.90;;
4726;SDS011;2377;51.734;8.950;2022-07-29T07:45:09;3.13;;;1.60;;
4726;SDS011;2377;51.734;8.950;2022-07-29T07:47:38;3.30;;;1.80;;
4726;SDS011;2377;51.734;8.950;2022-07-29T07:50:06;4.87;;;1.83;;
4726;SDS011;2377;51.734;8.950;2022-07-29T07:52:42;5.87;;;2.00;;
4726;SDS011;2377;51.734;8.950;2022-07-29T07:55:13;5.30;;;1.77;;
4726;SDS011;2377;51.734;8.950;2022-07-29T07:57:41;3.50;;;1.60;;
4726;SDS011;2377;51.734;8.950;2022-07-29T08:00:09;7.70;;;2.00;;
4726;SDS011;2377;51.734;8.950;2022-07-29T08:02:39;4.43;;;2.00;;
4726;SDS011;2377;51.734;8.950;2022-07-29T08:05:07;3.90;;;1.80;;
4726;SDS011;2377;51.734;8.950;2022-07-29T08:07:36;3.47;;;1.77;;
4726;SDS011;2377;51.734;8.950;2022-07-29T08:10:04;4.80;;;1.73;;
4726;SDS011;2377;51.734;8.950;2022-07-29T08:12:32;3.30;;;1.70;;
4726;SDS011;2377;51.734;8.950;2022-07-29T08:14:59;8.00;;;1.73;;
4726;SDS011;2377;51.734;8.950;2022-07-29T08:17:27;6.60;;;1.97;;
4726;SDS011;2377;51.734;8.950;2022-07-29T08:19:55;4.87;;;2.13;;
4726;SDS011;2377;51.734;8.950;2022-07-29T08:22:22;4.13;;;1.80;;
4726;SDS011;2377;51.734;8.950;2022-07-29T08:24:50;2.90;;;1.53;;
4726;SDS011;2377;51.734;8.950;2022-07-29T08:27:21;6.10;;;2.00;;
4726;SDS011;2377;51.734;8.950;2022-07-29T08:29:48;4.57;;;1.87;;
4726;SDS011;2377;51.734;8.950;2022-07-29T08:32:15;4.87;;;1.90;;
4726;SDS011;2377;51.734;8.950;2022-07-29T08:34:42;5.40;;;2.30;;
4726;SDS011;2377;51.734;8.950;2022-07-29T08:37:12;5.73;;;2.17;;
4726;SDS011;2377;51.734;8.950;2022-07-29T08:39:39;9.73;;;2.37;;
4726;SDS011;2377;51.734;8.950;2022-07-29T08:42:07;8.23;;;2.53;;
4726;SDS011;2377;51.734;8.950;2022-07-29T08:44:35;5.17;;;1.80;;
4726;SDS011;2377;51.734;8.950;2022-07-29T08:47:03;5.60;;;2.13;;
4726;SDS011;2377;51.734;8.950;2022-07-29T08:49:32;5.00;;;1.90;;
4726;SDS011;2377;51.734;8.950;2022-07-29T08:52:02;6.63;;;2.00;;
4726;SDS011;2377;51.734;8.950;2022-07-29T08:54:30;6.77;;;1.90;;
4726;SDS011;2377;51.734;8.950;2022-07-29T08:56:58;6.33;;;2.47;;
4726;SDS011;2377;51.734;8.950;2022-07-29T08:59:27;6.23;;;2.30;;
4726;SDS011;2377;51.734;8.950;2022-07-29T09:02:00;4.10;;;1.87;;
4726;SDS011;2377;51.734;8.950;2022-07-29T09:04:29;4.20;;;1.90;;
4726;SDS011;2377;51.734;8.950;2022-07-29T09:07:00;5.70;;;1.97;;
4726;SDS011;2377;51.734;8.950;2022-07-29T09:09:34;5.03;;;1.80;;
4726;SDS011;2377;51.734;8.950;2022-07-29T09:12:03;4.07;;;1.70;;
4726;SDS011;2377;51.734;8.950;2022-07-29T09:14:32;5.00;;;2.30;;
4726;SDS011;2377;51.734;8.950;2022-07-29T09:17:00;2.73;;;1.90;;
4726;SDS011;2377;51.734;8.950;2022-07-29T09:19:27;6.20;;;2.20;;
4726;SDS011;2377;51.734;8.950;2022-07-29T09:21:57;4.40;;;1.67;;
4726;SDS011;2377;51.734;8.950;2022-07-29T09:24:37;3.97;;;1.80;;
4726;SDS011;2377;51.734;8.950;2022-07-29T09:27:10;4.80;;;1.80;;
4726;SDS011;2377;51.734;8.950;2022-07-29T09:29:58;7.07;;;1.90;;
4726;SDS011;2377;51.734;8.950;2022-07-29T09:32:30;5.73;;;2.13;;
4726;SDS011;2377;51.734;8.950;2022-07-29T09:35:14;4.97;;;2.10;;
4726;SDS011;2377;51.734;8.950;2022-07-29T09:37:43;3.70;;;1.80;;
4726;SDS011;2377;51.734;8.950;2022-07-29T09:40:14;11.70;;;2.20;;
4726;SDS011;2377;51.734;8.950;2022-07-29T09:42:43;6.70;;;1.80;;
4726;SDS011;2377;51.734;8.950;2022-07-29T09:45:12;5.43;;;1.90;;
4726;SDS011;2377;51.734;8.950;2022-07-29T09:47:52;6.30;;;2.20;;
4726;SDS011;2377;51.734;8.950;2022-07-29T09:50:20;5.27;;;2.03;;
4726;SDS011;2377;51.734;8.950;2022-07-29T09:52:51;6.43;;;2.27;;
4726;SDS011;2377;51.734;8.950;2022-07-29T09:55:20;5.20;;;2.20;;
4726;SDS011;2377;51.734;8.950;2022-07-29T09:57:47;4.87;;;1.87;;
4726;SDS011;2377;51.734;8.950;2022-07-29T10:00:15;3.50;;;2.07;;
4726;SDS011;2377;51.734;8.950;2022-07-29T10:02:45;6.13;;;2.10;;
4726;SDS011;2377;51.734;8.950;2022-07-29T10:05:17;4.83;;;1.93;;
4726;SDS011;2377;51.734;8.950;2022-07-29T10:07:48;3.83;;;1.90;;
4726;SDS011;2377;51.734;8.950;2022-07-29T10:10:22;5.13;;;1.97;;
4726;SDS011;2377;51.734;8.950;2022-07-29T10:12:53;5.70;;;1.87;;
4726;SDS011;2377;51.734;8.950;2022-07-29T10:15:22;5.20;;;2.30;;
4726;SDS011;2377;51.734;8.950;2022-07-29T10:17:52;3.33;;;1.77;;
4726;SDS011;2377;51.734;8.950;2022-07-29T10:20:22;5.77;;;2.40;;
4726;SDS011;2377;51.734;8.950;2022-07-29T10:22:51;5.17;;;1.90;;
4726;SDS011;2377;51.734;8.950;2022-07-29T10:25:22;7.03;;;1.90;;
4726;SDS011;2377;51.734;8.950;2022-07-29T10:27:50;4.73;;;1.93;;
4726;SDS011;2377;51.734;8.950;2022-07-29T10:30:18;4.13;;;2.03;;
4726;SDS011;2377;51.734;8.950;2022-07-29T10:32:51;7.47;;;1.80;;
4726;SDS011;2377;51.734;8.950;2022-07-29T10:35:54;5.80;;;1.87;;
4726;SDS011;2377;51.734;8.950;2022-07-29T10:38:48;5.07;;;2.03;;
4726;SDS011;2377;51.734;8.950;2022-07-29T10:41:33;5.43;;;1.90;;
4726;SDS011;2377;51.734;8.950;2022-07-29T10:44:22;4.40;;;2.00;;
4726;SDS011;2377;51.734;8.950;2022-07-29T10:46:52;4.90;;;1.97;;
4726;SDS011;2377;51.734;8.950;2022-07-29T10:49:21;4.17;;;2.10;;
4726;SDS011;2377;51.734;8.950;2022-07-29T10:51:56;4.00;;;1.93;;
4726;SDS011;2377;51.734;8.950;2022-07-29T10:54:39;5.93;;;2.13;;
4726;SDS011;2377;51.734;8.950;2022-07-29T10:57:26;6.97;;;2.03;;
4726;SDS011;2377;51.734;8.950;2022-07-29T11:02:54;5.53;;;2.17;;
4726;SDS011;2377;51.734;8.950;2022-07-29T11:05:23;5.10;;;2.37;;
4726;SDS011;2377;51.734;8.950;2022-07-29T11:10:50;10.27;;;2.43;;
4726;SDS011;2377;51.734;8.950;2022-07-29T11:13:50;4.23;;;2.20;;
4726;SDS011;2377;51.734;8.950;2022-07-29T11:16:20;6.27;;;2.33;;
4726;SDS011;2377;51.734;8.950;2022-07-29T11:21:48;4.30;;;2.00;;
4726;SDS011;2377;51.734;8.950;2022-07-29T11:24:17;4.63;;;1.90;;
4726;SDS011;2377;51.734;8.950;2022-07-29T11:29:40;4.57;;;1.90;;
4726;SDS011;2377;51.734;8.950;2022-07-29T11:32:16;5.30;;;2.10;;
4726;SDS011;2377;51.734;8.950;2022-07-29T11:34:45;6.60;;;2.37;;
4726;SDS011;2377;51.734;8.950;2022-07-29T11:37:23;5.23;;;2.30;;
4726;SDS011;2377;51.734;8.950;2022-07-29T11:40:13;4.00;;;2.07;;
4726;SDS011;2377;51.734;8.950;2022-07-29T11:42:44;4.93;;;2.10;;
4726;SDS011;2377;51.734;8.950;2022-07-29T11:45:27;6.50;;;2.40;;
4726;SDS011;2377;51.734;8.950;2022-07-29T11:48:16;5.27;;;2.67;;
4726;SDS011;2377;51.734;8.950;2022-07-29T11:50:44;6.40;;;2.43;;
4726;SDS011;2377;51.734;8.950;2022-07-29T11:53:12;5.33;;;2.43;;
4726;SDS011;2377;51.734;8.950;2022-07-29T11:55:41;3.60;;;2.27;;
4726;SDS011;2377;51.734;8.950;2022-07-29T11:58:08;5.60;;;2.60;;
4726;SDS011;2377;51.734;8.950;2022-07-29T12:00:37;4.70;;;2.43;;
4726;SDS011;2377;51.734;8.950;2022-07-29T12:03:08;5.00;;;2.40;;
4726;SDS011;2377;51.734;8.950;2022-07-29T12:05:39;4.40;;;2.37;;
4726;SDS011;2377;51.734;8.950;2022-07-29T12:08:09;4.30;;;2.23;;
4726;SDS011;2377;51.734;8.950;2022-07-29T12:10:39;4.60;;;1.87;;
4726;SDS011;2377;51.734;8.950;2022-07-29T12:13:09;3.83;;;2.13;;
4726;SDS011;2377;51.734;8.950;2022-07-29T12:15:38;4.23;;;2.37;;
4726;SDS011;2377;51.734;8.950;2022-07-29T12:18:15;5.77;;;2.50;;
4726;SDS011;2377;51.734;8.950;2022-07-29T12:20:46;10.63;;;2.83;;
4726;SDS011;2377;51.734;8.950;2022-07-29T12:23:14;5.03;;;2.43;;
4726;SDS011;2377;51.734;8.950;2022-07-29T12:25:43;6.20;;;2.53;;
4726;SDS011;2377;51.734;8.950;2022-07-29T12:28:11;3.93;;;2.20;;
4726;SDS011;2377;51.734;8.950;2022-07-29T12:30:45;6.90;;;2.30;;
4726;SDS011;2377;51.734;8.950;2022-07-29T12:33:19;4.70;;;2.60;;
4726;SDS011;2377;51.734;8.950;2022-07-29T12:35:49;5.37;;;2.23;;
4726;SDS011;2377;51.734;8.950;2022-07-29T12:38:19;5.80;;;2.47;;
4726;SDS011;2377;51.734;8.950;2022-07-29T12:40:47;4.47;;;2.30;;
4726;SDS011;2377;51.734;8.950;2022-07-29T12:43:17;5.00;;;2.63;;
4726;SDS011;2377;51.734;8.950;2022-07-29T12:45:49;4.83;;;2.00;;
4726;SDS011;2377;51.734;8.950;2022-07-29T12:48:30;3.87;;;2.00;;
4726;SDS011;2377;51.734;8.950;2022-07-29T12:51:00;5.57;;;2.37;;
4726;SDS011;2377;51.734;8.950;2022-07-29T12:53:31;5.87;;;2.20;;
4726;SDS011;2377;51.734;8.950;2022-07-29T12:55:59;4.03;;;2.20;;
4726;SDS011;2377;51.734;8.950;2022-07-29T12:58:28;3.60;;;2.43;;
4726;SDS011;2377;51.734;8.950;2022-07-29T13:03:45;3.30;;;2.00;;
4726;SDS011;2377;51.734;8.950;2022-07-29T13:06:28;4.80;;;2.20;;
4726;SDS011;2377;51.734;8.950;2022-07-29T13:09:03;5.17;;;2.50;;
4726;SDS011;2377;51.734;8.950;2022-07-29T13:11:37;4.20;;;2.53;;
4726;SDS011;2377;51.734;8.950;2022-07-29T13:14:07;5.20;;;2.10;;
4726;SDS011;2377;51.734;8.950;2022-07-29T13:19:35;5.20;;;2.43;;
4726;SDS011;2377;51.734;8.950;2022-07-29T13:22:05;5.43;;;2.37;;
4726;SDS011;2377;51.734;8.950;2022-07-29T13:24:33;4.70;;;2.30;;
4726;SDS011;2377;51.734;8.950;2022-07-29T13:27:11;5.50;;;2.73;;
4726;SDS011;2377;51.734;8.950;2022-07-29T13:29:39;6.30;;;2.93;;
4726;SDS011;2377;51.734;8.950;2022-07-29T13:32:08;5.20;;;2.57;;
4726;SDS011;2377;51.734;8.950;2022-07-29T13:34:35;5.40;;;2.83;;
4726;SDS011;2377;51.734;8.950;2022-07-29T13:37:02;7.87;;;2.63;;
4726;SDS011;2377;51.734;8.950;2022-07-29T13:39:29;5.40;;;2.50;;
4726;SDS011;2377;51.734;8.950;2022-07-29T13:41:57;6.47;;;2.73;;
4726;SDS011;2377;51.734;8.950;2022-07-29T13:44:24;4.40;;;2.50;;
4726;SDS011;2377;51.734;8.950;2022-07-29T13:46:51;4.80;;;2.70;;
4726;SDS011;2377;51.734;8.950;2022-07-29T13:49:20;5.37;;;2.60;;
4726;SDS011;2377;51.734;8.950;2022-07-29T13:51:47;3.73;;;2.47;;
4726;SDS011;2377;51.734;8.950;2022-07-29T13:54:15;7.80;;;2.70;;
4726;SDS011;2377;51.734;8.950;2022-07-29T13:56:42;6.03;;;2.50;;
4726;SDS011;2377;51.734;8.950;2022-07-29T13:59:10;5.23;;;2.53;;
4726;SDS011;2377;51.734;8.950;2022-07-29T14:01:37;7.70;;;3.00;;
4726;SDS011;2377;51.734;8.950;2022-07-29T14:04:06;6.80;;;2.67;;
4726;SDS011;2377;51.734;8.950;2022-07-29T14:06:36;6.03;;;2.67;;
4726;SDS011;2377;51.734;8.950;2022-07-29T14:09:03;6.43;;;2.67;;
4726;SDS011;2377;51.734;8.950;2022-07-29T14:11:33;5.60;;;3.00;;
4726;SDS011;2377;51.734;8.950;2022-07-29T14:14:00;8.47;;;2.83;;
4726;SDS011;2377;51.734;8.950;2022-07-29T14:16:28;5.70;;;2.60;;
4726;SDS011;2377;51.734;8.950;2022-07-29T14:18:55;5.17;;;2.80;;
4726;SDS011;2377;51.734;8.950;2022-07-29T14:21:22;5.17;;;2.80;;
4726;SDS011;2377;51.734;8.950;2022-07-29T14:23:51;11.23;;;3.30;;
4726;SDS011;2377;51.734;8.950;2022-07-29T14:26:19;8.73;;;3.10;;
4726;SDS011;2377;51.734;8.950;2022-07-29T14:28:47;5.47;;;3.13;;
4726;SDS011;2377;51.734;8.950;2022-07-29T14:31:14;9.13;;;3.03;;
4726;SDS011;2377;51.734;8.950;2022-07-29T14:33:41;4.63;;;2.93;;
4726;SDS011;2377;51.734;8.950;2022-07-29T14:36:08;4.97;;;2.73;;
4726;SDS011;2377;51.734;8.950;2022-07-29T14:38:35;4.30;;;2.77;;
4726;SDS011;2377;51.734;8.950;2022-07-29T14:41:05;4.80;;;2.77;;
4726;SDS011;2377;51.734;8.950;2022-07-29T14:43:33;6.07;;;2.90;;
4726;SDS011;2377;51.734;8.950;2022-07-29T14:46:00;4.77;;;2.93;;
4726;SDS011;2377;51.734;8.950;2022-07-29T14:48:28;6.23;;;3.30;;
4726;SDS011;2377;51.734;8.950;2022-07-29T14:50:55;4.77;;;2.50;;
4726;SDS011;2377;51.734;8.950;2022-07-29T14:53:23;5.63;;;2.90;;
4726;SDS011;2377;51.734;8.950;2022-07-29T14:55:50;6.23;;;3.20;;
4726;SDS011;2377;51.734;8.950;2022-07-29T14:58:19;4.73;;;2.83;;
4726;SDS011;2377;51.734;8.950;2022-07-29T15:00:47;5.90;;;2.67;;
4726;SDS011;2377;51.734;8.950;2022-07-29T15:03:14;6.50;;;2.40;;
4726;SDS011;2377;51.734;8.950;2022-07-29T15:05:41;7.13;;;3.10;;
4726;SDS011;2377;51.734;8.950;2022-07-29T15:08:08;7.47;;;3.20;;
4726;SDS011;2377;51.734;8.950;2022-07-29T15:10:36;7.80;;;3.30;;
4726;SDS011;2377;51.734;8.950;2022-07-29T15:13:03;7.17;;;3.20;;
4726;SDS011;2377;51.734;8.950;2022-07-29T15:15:31;6.30;;;2.90;;
4726;SDS011;2377;51.734;8.950;2022-07-29T15:17:58;4.70;;;2.60;;
4726;SDS011;2377;51.734;8.950;2022-07-29T15:20:26;5.20;;;3.10;;
4726;SDS011;2377;51.734;8.950;2022-07-29T15:22:53;3.83;;;2.43;;
4726;SDS011;2377;51.734;8.950;2022-07-29T15:25:20;5.07;;;2.80;;
4726;SDS011;2377;51.734;8.950;2022-07-29T15:27:48;5.50;;;2.60;;
4726;SDS011;2377;51.734;8.950;2022-07-29T15:30:15;4.33;;;2.27;;
4726;SDS011;2377;51.734;8.950;2022-07-29T15:32:43;5.37;;;3.10;;
4726;SDS011;2377;51.734;8.950;2022-07-29T15:35:11;4.80;;;2.80;;
4726;SDS011;2377;51.734;8.950;2022-07-29T15:37:38;4.57;;;2.50;;
4726;SDS011;2377;51.734;8.950;2022-07-29T15:40:06;4.40;;;2.70;;
4726;SDS011;2377;51.734;8.950;2022-07-29T15:42:35;3.70;;;2.40;;
4726;SDS011;2377;51.734;8.950;2022-07-29T15:45:02;4.10;;;2.40;;
4726;SDS011;2377;51.734;8.950;2022-07-29T15:47:30;4.47;;;2.93;;
4726;SDS011;2377;51.734;8.950;2022-07-29T15:49:59;5.20;;;2.97;;